createdAt,value
2023-01-21T00:01:55.472Z,-1.09
2023-01-21T00:05:58.290Z,-1.25
2023-01-21T00:09:59.793Z,-1.25
2023-01-21T00:14:01.281Z,-1.35
2023-01-21T00:18:02.745Z,-1.32
2023-01-21T00:22:04.488Z,-1.28
2023-01-21T00:26:07.717Z,-1.19
2023-01-21T00:30:10.761Z,-1.14
2023-01-21T00:34:12.354Z,-1.09
2023-01-21T00:38:13.790Z,-1.19
2023-01-21T00:42:15.189Z,-1.17
2023-01-21T00:46:16.877Z,-1.12
2023-01-21T00:50:18.800Z,-1.24
2023-01-21T00:54:20.498Z,-1.24
2023-01-21T00:58:21.977Z,-1.20
2023-01-21T01:02:23.766Z,-1.23
2023-01-21T01:06:25.358Z,-1.16
2023-01-21T01:10:26.892Z,-1.20
2023-01-21T01:14:28.458Z,-1.21
2023-01-21T01:18:33.542Z,-1.19
2023-01-21T01:22:35.118Z,-1.26
2023-01-21T01:26:36.618Z,-1.26
2023-01-21T01:30:38.087Z,-1.26
2023-01-21T01:34:39.654Z,-1.27
2023-01-21T01:38:41.930Z,-1.22
2023-01-21T01:42:43.387Z,-1.32
2023-01-21T01:46:44.927Z,-1.23
2023-01-21T01:50:48.063Z,-1.24
2023-01-21T01:54:55.663Z,-1.11
2023-01-21T01:58:57.405Z,-1.03
2023-01-21T02:03:34.083Z,-1.02
2023-01-21T02:07:40.157Z,-1.08
2023-01-21T02:11:41.632Z,-1.05
2023-01-21T02:16:15.167Z,-1.07
2023-01-21T02:20:45.481Z,-1.06
2023-01-21T02:24:52.742Z,-0.94
2023-01-21T02:29:19.080Z,-0.95
2023-01-21T02:33:26.994Z,-0.84
2023-01-21T02:37:52.931Z,-0.82
2023-01-21T02:42:06.152Z,-0.76
2023-01-21T02:46:19.953Z,-0.80
2023-01-21T02:50:52.005Z,-0.81
2023-01-21T02:54:59.370Z,-0.70
2023-01-21T02:59:05.125Z,-0.67
2023-01-21T03:03:22.154Z,-0.70
2023-01-21T03:07:29.563Z,-0.66
2023-01-21T03:11:31.133Z,-0.61
2023-01-21T03:15:57.205Z,-0.47
2023-01-21T03:20:04.442Z,-0.44
2023-01-21T03:24:06.834Z,-0.45
2023-01-21T03:28:13.874Z,-0.41
2023-01-21T03:32:18.663Z,-0.48
2023-01-21T03:36:37.273Z,-0.38
2023-01-21T03:40:44.427Z,-0.33
2023-01-21T03:44:47.225Z,-0.43
2023-01-21T03:48:48.631Z,-0.51
2023-01-21T03:52:50.307Z,-0.48
2023-01-21T03:56:51.737Z,-0.41
2023-01-21T04:00:53.171Z,-0.38
2023-01-21T04:04:54.664Z,-0.35
2023-01-21T04:08:56.090Z,-0.42
2023-01-21T04:12:57.533Z,-0.43
2023-01-21T04:16:58.953Z,-0.46
2023-01-21T04:21:00.482Z,-0.46
2023-01-21T04:25:01.944Z,-0.50
2023-01-21T04:29:03.745Z,-0.42
2023-01-21T04:33:05.174Z,-0.45
2023-01-21T04:37:06.645Z,-0.46
2023-01-21T04:41:08.103Z,-0.48
2023-01-21T04:45:10.220Z,-0.48
2023-01-21T04:49:11.641Z,-0.43
2023-01-21T04:53:13.092Z,-0.39
2023-01-21T04:57:14.561Z,-0.46
2023-01-21T05:01:16.046Z,-0.36
2023-01-21T05:05:17.545Z,-0.33
2023-01-21T05:09:18.939Z,-0.48
2023-01-21T05:13:20.409Z,-0.44
2023-01-21T05:17:21.853Z,-0.46
2023-01-21T05:21:23.278Z,-0.44
2023-01-21T05:25:24.710Z,-0.42
2023-01-21T05:29:26.159Z,-0.44
2023-01-21T05:33:35.087Z,-0.52
2023-01-21T05:37:36.519Z,-0.54
2023-01-21T05:41:38.000Z,-0.49
2023-01-21T05:45:39.487Z,-0.45
2023-01-21T05:49:40.929Z,-0.47
2023-01-21T05:53:42.328Z,-0.39
2023-01-21T05:57:43.815Z,-0.35
2023-01-21T06:01:45.208Z,-0.42
2023-01-21T06:05:49.644Z,-0.30
2023-01-21T06:09:51.119Z,-0.26
2023-01-21T06:13:52.569Z,-0.30
2023-01-21T06:17:54.562Z,-0.16
2023-01-21T06:21:56.000Z,-0.22
2023-01-21T06:26:01.738Z,-0.22
2023-01-21T06:30:06.582Z,-0.15
2023-01-21T06:34:09.104Z,-0.17
2023-01-21T06:38:10.550Z,-0.23
2023-01-21T06:42:11.920Z,-0.15
2023-01-21T06:46:13.795Z,-0.25
2023-01-21T06:50:17.908Z,-0.25
2023-01-21T06:54:19.495Z,-0.22
2023-01-21T06:58:20.940Z,-0.23
2023-01-21T07:02:22.386Z,-0.28
2023-01-21T07:06:23.805Z,-0.34
2023-01-21T07:10:25.579Z,-0.18
2023-01-21T07:14:27.138Z,-0.20
2023-01-21T07:18:28.743Z,-0.25
2023-01-21T07:22:30.530Z,-0.17
2023-01-21T07:26:36.128Z,-0.26
2023-01-21T07:30:37.737Z,-0.23
2023-01-21T07:34:39.211Z,-0.11
2023-01-21T07:38:40.694Z,-0.14
2023-01-21T07:42:42.119Z,-0.13
2023-01-21T07:46:43.598Z,-0.08
2023-01-21T07:50:45.115Z,-0.05
2023-01-21T07:54:47.583Z,-0.19
2023-01-21T07:58:49.111Z,-0.13
2023-01-21T08:02:51.548Z,-0.25
2023-01-21T08:06:56.852Z,-0.14
2023-01-21T08:10:58.370Z,-0.08
2023-01-21T08:14:59.815Z,0.06
2023-01-21T08:19:01.266Z,0.37
2023-01-21T08:23:02.777Z,0.45
2023-01-21T08:27:04.356Z,0.23
2023-01-21T08:31:09.028Z,0.08
2023-01-21T08:35:10.521Z,0.21
2023-01-21T08:39:16.388Z,0.35
2023-01-21T08:43:17.821Z,0.15
2023-01-21T08:47:19.517Z,0.13
2023-01-21T08:51:21.058Z,0.24
2023-01-21T08:55:26.953Z,0.39
2023-01-21T08:59:30.000Z,0.46
2023-01-21T09:03:31.484Z,0.55
2023-01-21T09:07:32.950Z,0.44
2023-01-21T09:11:34.668Z,0.37
2023-01-21T09:15:39.964Z,0.47
2023-01-21T09:19:41.765Z,0.53
2023-01-21T09:23:44.283Z,0.61
2023-01-21T09:27:45.700Z,0.68
2023-01-21T09:31:47.149Z,0.82
2023-01-21T09:35:57.229Z,0.90
2023-01-21T09:39:58.647Z,1.03
2023-01-21T09:44:22.521Z,1.03
2023-01-21T09:48:32.613Z,1.02
2023-01-21T09:52:40.356Z,0.97
2023-01-21T09:56:56.176Z,1.03
2023-01-21T10:01:15.564Z,1.09
2023-01-21T10:05:25.854Z,1.12
2023-01-21T10:09:32.890Z,1.06
2023-01-21T10:13:41.039Z,1.15
2023-01-21T10:18:03.366Z,1.15
2023-01-21T10:22:31.266Z,1.21
2023-01-21T10:26:34.638Z,1.28
2023-01-21T10:30:43.419Z,1.16
2023-01-21T10:34:51.678Z,1.13
2023-01-21T10:38:58.776Z,1.30
2023-01-21T10:43:07.182Z,1.35
2023-01-21T10:47:30.469Z,1.40
2023-01-21T10:51:45.959Z,1.35
2023-01-21T10:56:35.446Z,1.43
2023-01-21T11:00:47.310Z,1.36
2023-01-21T11:04:49.161Z,1.55
2023-01-21T11:09:00.578Z,1.62
2023-01-21T11:13:02.091Z,1.60
2023-01-21T11:17:03.688Z,1.64
2023-01-21T11:21:20.093Z,1.64
2023-01-21T11:25:24.411Z,2.09
2023-01-21T11:29:26.655Z,1.99
2023-01-21T11:33:28.340Z,2.03
2023-01-21T11:37:31.513Z,2.04
2023-01-21T11:41:33.697Z,1.96
2023-01-21T11:45:36.884Z,2.07
2023-01-21T11:49:47.859Z,2.11
2023-01-21T11:54:06.099Z,2.25
2023-01-21T11:58:23.646Z,2.28
2023-01-21T12:02:33.953Z,2.26
2023-01-21T12:06:37.124Z,2.29
2023-01-21T12:10:44.108Z,2.26
2023-01-21T12:14:57.993Z,2.25
2023-01-21T12:19:16.495Z,2.28
2023-01-21T12:23:30.547Z,2.24
2023-01-21T12:27:50.671Z,2.28
2023-01-21T12:31:56.432Z,2.36
2023-01-21T12:36:20.154Z,2.39
2023-01-21T12:40:31.961Z,2.37
2023-01-21T12:44:43.743Z,2.51
2023-01-21T12:48:52.219Z,2.52
2023-01-21T12:53:15.160Z,2.49
2023-01-21T12:57:25.593Z,2.74
2023-01-21T13:01:42.652Z,2.64
2023-01-21T13:06:15.353Z,2.55
2023-01-21T13:10:38.057Z,2.60
2023-01-21T13:14:42.943Z,2.51
2023-01-21T13:18:51.689Z,2.55
2023-01-21T13:22:56.044Z,2.60
2023-01-21T13:27:26.871Z,2.59
2023-01-21T13:31:28.193Z,2.65
2023-01-21T13:35:36.621Z,2.69
2023-01-21T13:39:51.055Z,2.69
2023-01-21T13:44:14.083Z,2.66
2023-01-21T13:48:15.466Z,2.73
2023-01-21T13:52:31.622Z,2.71
2023-01-21T13:56:39.505Z,2.60
2023-01-21T14:00:56.064Z,2.55
2023-01-21T14:05:03.549Z,2.58
2023-01-21T14:09:13.713Z,2.53
2023-01-21T14:13:42.461Z,2.58
2023-01-21T14:18:12.750Z,2.47
2023-01-21T14:22:41.045Z,2.46
2023-01-21T14:26:57.598Z,2.54
2023-01-21T14:31:21.460Z,2.47
2023-01-21T14:35:34.016Z,2.48
2023-01-21T14:40:15.208Z,2.50
2023-01-21T14:44:34.819Z,2.59
2023-01-21T14:48:41.420Z,2.54
2023-01-21T14:52:46.080Z,2.47
2023-01-21T14:57:18.172Z,2.51
2023-01-21T15:01:29.784Z,2.48
2023-01-21T15:05:36.993Z,2.46
2023-01-21T15:09:47.061Z,2.43
2023-01-21T15:14:03.571Z,2.37
2023-01-21T15:18:34.053Z,2.16
2023-01-21T15:22:40.888Z,2.04
2023-01-21T15:27:03.200Z,1.97
2023-01-21T15:31:08.265Z,1.76
2023-01-21T15:35:30.315Z,1.57
2023-01-21T15:39:34.041Z,1.51
2023-01-21T15:43:45.081Z,1.32
2023-01-21T15:47:46.587Z,1.23
2023-01-21T15:52:09.728Z,1.15
2023-01-21T15:56:32.626Z,1.03
2023-01-21T16:00:53.486Z,0.88
2023-01-21T16:05:06.702Z,0.80
2023-01-21T16:09:11.250Z,0.83
2023-01-21T16:13:36.143Z,0.66
2023-01-21T16:17:52.817Z,0.73
2023-01-21T16:21:59.669Z,0.65
2023-01-21T16:26:02.372Z,0.58
2023-01-21T16:30:12.866Z,0.61
2023-01-21T16:34:14.489Z,0.68
2023-01-21T16:38:21.722Z,0.74
2023-01-21T16:42:37.962Z,0.71
2023-01-21T16:46:40.637Z,0.73
2023-01-21T16:50:48.138Z,0.71
2023-01-21T16:54:52.801Z,0.98
2023-01-21T16:58:55.962Z,0.66
2023-01-21T17:02:58.849Z,0.54
2023-01-21T17:07:00.528Z,0.49
2023-01-21T17:11:10.403Z,0.41
2023-01-21T17:15:30.562Z,0.40
2023-01-21T17:19:42.653Z,0.42
2023-01-21T17:23:52.694Z,0.46
2023-01-21T17:27:55.441Z,0.50
2023-01-21T17:32:25.754Z,0.55
2023-01-21T17:36:37.169Z,0.57
2023-01-21T17:41:03.775Z,0.48
2023-01-21T17:45:06.480Z,0.45
2023-01-21T17:49:15.133Z,0.50
2023-01-21T17:53:24.744Z,0.50
2023-01-21T17:57:34.845Z,0.51
2023-01-21T18:01:36.337Z,0.51
2023-01-21T18:05:40.898Z,0.52
2023-01-21T18:09:42.539Z,0.59
2023-01-21T18:13:44.099Z,0.58
2023-01-21T18:17:48.152Z,0.58
2023-01-21T18:21:49.608Z,0.55
2023-01-21T18:25:54.639Z,0.57
2023-01-21T18:29:57.067Z,0.59
2023-01-21T18:33:58.627Z,0.69
2023-01-21T18:38:00.151Z,0.97
2023-01-21T18:42:01.748Z,0.80
2023-01-21T18:46:03.445Z,0.86
2023-01-21T18:50:05.463Z,0.85
2023-01-21T18:54:07.625Z,0.75
2023-01-21T18:58:14.148Z,0.77
2023-01-21T19:02:18.737Z,0.75
2023-01-21T19:06:22.850Z,0.76
2023-01-21T19:10:24.302Z,0.67
2023-01-21T19:14:25.770Z,0.78
2023-01-21T19:18:27.432Z,0.81
2023-01-21T19:22:28.968Z,0.86
2023-01-21T19:26:30.899Z,0.78
2023-01-21T19:30:33.090Z,0.85
2023-01-21T19:34:34.501Z,0.74
2023-01-21T19:38:36.154Z,0.79
2023-01-21T19:42:38.453Z,0.74
2023-01-21T19:46:40.616Z,0.71
2023-01-21T19:50:42.460Z,0.72
2023-01-21T19:54:44.143Z,0.78
2023-01-21T19:58:45.678Z,0.74
2023-01-21T20:02:47.332Z,0.71
2023-01-21T20:06:48.806Z,0.67
2023-01-21T20:10:50.508Z,0.84
2023-01-21T20:14:52.007Z,0.80
2023-01-21T20:18:55.274Z,0.91
2023-01-21T20:22:57.528Z,0.92
2023-01-21T20:27:00.504Z,0.90
2023-01-21T20:31:07.973Z,0.86
2023-01-21T20:35:10.141Z,0.87
2023-01-21T20:39:13.362Z,0.93
2023-01-21T20:43:16.095Z,0.97
2023-01-21T20:47:32.528Z,0.97
2023-01-21T20:51:39.698Z,0.93
2023-01-21T20:55:44.999Z,0.98
2023-01-21T20:59:46.545Z,1.03
2023-01-21T21:03:49.007Z,1.02
2023-01-21T21:07:51.172Z,1.10
2023-01-21T21:11:52.725Z,1.13
2023-01-21T21:15:54.325Z,1.11
2023-01-21T21:19:55.804Z,1.12
2023-01-21T21:23:57.265Z,1.40
2023-01-21T21:27:58.783Z,1.16
2023-01-21T21:32:02.283Z,1.17
2023-01-21T21:36:04.028Z,1.08
2023-01-21T21:40:06.307Z,1.16
2023-01-21T21:44:09.179Z,1.12
2023-01-21T21:48:39.206Z,1.20
2023-01-21T21:52:40.660Z,1.22
2023-01-21T21:56:42.947Z,1.19
2023-01-21T22:00:44.741Z,1.08
2023-01-21T22:04:46.285Z,1.12
2023-01-21T22:08:48.665Z,1.12
2023-01-21T22:12:50.184Z,1.17
2023-01-21T22:16:51.997Z,1.08
2023-01-21T22:21:00.437Z,1.16
2023-01-21T22:25:01.996Z,1.16
2023-01-21T22:29:05.072Z,1.16
2023-01-21T22:33:07.532Z,1.20
2023-01-21T22:37:08.966Z,1.34
2023-01-21T22:41:15.193Z,1.27
2023-01-21T22:45:19.216Z,1.23
2023-01-21T22:49:22.215Z,1.06
2023-01-21T22:53:24.194Z,1.14
2023-01-21T22:57:25.670Z,1.04
2023-01-21T23:01:31.558Z,1.08
2023-01-21T23:05:35.181Z,1.13
2023-01-21T23:09:36.708Z,1.08
2023-01-21T23:13:38.336Z,1.10
2023-01-21T23:17:39.873Z,1.15
2023-01-21T23:21:41.426Z,1.09
2023-01-21T23:25:44.605Z,1.14
2023-01-21T23:29:46.165Z,1.06
2023-01-21T23:33:52.116Z,1.09
2023-01-21T23:37:53.682Z,1.14
2023-01-21T23:41:55.231Z,1.16
2023-01-21T23:45:56.986Z,1.16
2023-01-21T23:49:58.698Z,1.14
2023-01-21T23:54:01.956Z,1.07
2023-01-21T23:58:03.694Z,1.10
